Latest Weather Observations for Mount Magnet Airport

IDW60801

Issued at 9:32 am WST Monday 27 April 2015 (issued every 30 minutes, with the page automatically refreshed every 10 minutes)

About weather observations | Map of weather stations | Latest weather observations for WA | Other Formats
Station Details ID: 007600 Name: MOUNT MAGNET AERO Lat: -28.12 Lon: 117.84 Height: 407.0 m
Data from the previous 72 hours. | See also: Recent months at Mount Magnet Airport
Date/Time
WST
Temp
°C
App
Temp
°C
Dew
Point
Rel
Hum
%
Delta-T
°C
Wind Press
QNH
hPa
Press
MSL
hPa
Rain
since 9 am
mm
Dir
 
Spd
km/h
Gust
km/h
Spd
kts
Gust
kts
27/09:30am 18.6 13.1 5.8 43 6.4 NE 24 33 13 18 1025.7 1023.8 0.0
27/09:00am 17.5 11.6 5.8 46 5.8 ENE 26 39 14 21 1025.9 1024.1 0.0
27/08:30am 16.1 10.1 5.4 49 5.2 ENE 26 37 14 20 1025.8 1023.9 0.0
27/08:00am 15.2 9.6 5.4 52 4.7 ENE 24 32 13 17 1025.7 1023.8 0.0
27/07:30am 14.3 10.0 5.4 55 4.3 ENE 17 24 9 13 1025.3 1023.4 0.0
27/07:00am 13.4 9.1 5.1 57 3.9 ENE 17 20 9 11 1025.0 1023.1 0.0
27/06:30am 13.1 8.7 4.8 57 3.9 E 17 20 9 11 1024.7 1022.8 0.0
27/06:00am 13.1 8.7 4.5 56 4.0 E 17 20 9 11 1024.4 1022.5 0.0
27/05:30am 12.9 8.8 4.1 55 4.1 ENE 15 19 8 10 1023.8 1022.0 0.0
27/05:00am 13.1 8.5 3.7 53 4.3 E 17 22 9 12 1023.7 1021.9 0.0
27/04:30am 13.2 9.0 3.6 52 4.4 E 15 20 8 11 1023.5 1021.6 0.0
27/04:00am 13.4 8.8 3.5 51 4.5 E 17 20 9 11 1023.5 1021.6 0.0
27/03:30am 13.9 9.3 3.7 50 4.7 E 17 22 9 12 1023.5 1021.6 0.0
27/03:00am 14.6 9.6 3.7 48 5.1 E 19 24 10 13 1023.5 1021.6 0.0
27/02:30am 15.3 11.5 3.8 46 5.4 E 13 17 7 9 1023.5 1021.6 0.0
27/02:00am 15.7 11.4 3.5 44 5.7 E 15 20 8 11 1023.5 1021.6 0.0
27/01:30am 15.4 11.5 3.5 45 5.6 E 13 17 7 9 1023.7 1021.9 0.0
27/01:00am 15.3 11.5 3.8 46 5.4 E 13 17 7 9 1023.7 1021.9 0.0
27/12:30am 15.3 11.9 3.8 46 5.4 E 11 13 6 7 1023.8 1022.0 0.0
27/12:00am 15.7 12.3 3.8 45 5.6 E 11 15 6 8 1023.8 1022.0 0.0
 
Date/Time
WST
Temp
°C
App
Temp
°C
Dew
Point
Rel
Hum
%
Delta-T
°C
Wind Press
QNH
hPa
Press
MSL
hPa
Rain
since 9 am
mm
Dir
 
Spd
km/h
Gust
km/h
Spd
kts
Gust
kts
26/11:30pm 15.8 12.3 3.6 44 5.7 E 11 15 6 8 1023.8 1022.0 0.0
26/11:00pm 16.2 12.7 3.6 43 5.9 E 11 17 6 9 1023.9 1022.1 0.0
26/10:30pm 16.9 13.0 3.2 40 6.4 E 13 17 7 9 1023.9 1022.1 0.0
26/10:00pm 17.3 13.4 3.2 39 6.6 E 13 19 7 10 1023.9 1022.1 0.0
26/09:30pm 17.7 14.1 3.2 38 6.9 E 11 15 6 8 1023.8 1022.0 0.0
26/09:00pm 18.3 14.4 3.4 37 7.1 E 13 17 7 9 1023.8 1022.0 0.0
26/08:30pm 18.8 14.9 3.4 36 7.4 ESE 13 17 7 9 1023.6 1021.7 0.0
26/08:00pm 19.2 15.4 3.8 36 7.4 ESE 13 19 7 10 1023.3 1021.4 0.0
26/07:30pm 19.6 15.8 4.1 36 7.5 ESE 13 15 7 8 1023.0 1021.1 0.0
26/07:00pm 20.4 16.7 4.4 35 7.9 ESE 13 17 7 9 1022.8 1020.9 0.0
26/06:30pm 20.9 17.7 4.9 35 8.0 E 11 13 6 7 1022.6 1020.7 0.0
26/06:00pm 21.6 17.9 4.7 33 8.4 E 13 17 7 9 1022.3 1020.4 0.0
26/05:30pm 22.4 18.0 4.9 32 8.8 E 17 20 9 11 1022.0 1020.1 0.0
26/05:00pm 23.1 18.7 4.6 30 9.3 E 17 24 9 13 1022.0 1020.1 0.0
26/04:30pm 23.5 19.1 4.5 29 9.6 E 17 24 9 13 1021.9 1020.0 0.0
26/04:00pm 23.7 18.7 4.6 29 9.6 E 20 35 11 19 1021.5 1019.7 0.0
26/03:30pm 23.5 18.7 4.9 30 9.5 E 19 28 10 15 1021.5 1019.7 0.0
26/03:00pm 23.1 18.7 4.6 30 9.3 ENE 17 30 9 16 1021.8 1019.9 0.0
26/02:30pm 23.0 18.3 5.0 31 9.1 E 19 28 10 15 1021.8 1019.9 0.0
26/02:00pm 22.5 17.8 5.0 32 8.8 ESE 19 32 10 17 1022.0 1020.1 0.0
26/01:30pm 22.6 17.9 5.1 32 8.9 E 19 26 10 14 1022.0 1020.1 0.0
26/01:00pm 22.3 17.5 4.8 32 8.8 E 19 30 10 16 1022.5 1020.6 0.0
26/12:30pm 22.0 17.6 5.0 33 8.6 ENE 17 26 9 14 1022.8 1020.9 0.0
26/12:00pm 21.4 16.5 4.9 34 8.2 ENE 20 28 11 15 1023.3 1021.4 0.0
26/11:30am 20.5 15.6 4.9 36 7.8 ENE 20 28 11 15 1024.0 1022.2 0.0
26/11:00am 20.1 14.4 5.0 37 7.5 ENE 24 35 13 19 1024.4 1022.5 0.0
26/10:30am 19.5 13.4 4.8 38 7.3 ENE 26 35 14 19 1024.7 1022.8 0.0
26/10:00am 18.7 12.7 5.2 41 6.7 ENE 26 35 14 19 1024.8 1022.9 0.0
26/09:30am 17.7 11.3 5.3 44 6.1 ENE 28 39 15 21 1025.0 1023.1 0.0
26/09:00am 16.8 10.4 5.1 46 5.7 ENE 28 41 15 22 1025.1 1023.2 0.0
26/08:30am 15.8 9.8 5.1 49 5.2 ENE 26 33 14 18 1025.0 1023.1 0.0
26/08:00am 14.9 8.8 4.9 51 4.8 NE 26 35 14 19 1024.6 1022.7 0.0
26/07:30am 13.8 8.4 4.4 53 4.4 ENE 22 30 12 16 1024.1 1022.3 0.0
26/07:00am 13.2 8.1 4.1 54 4.2 ENE 20 28 11 15 1023.7 1021.9 0.0
26/06:30am 13.0 8.1 3.9 54 4.2 ENE 19 26 10 14 1023.6 1021.7 0.0
26/06:00am 12.9 8.4 4.1 55 4.1 ENE 17 22 9 12 1023.5 1021.6 0.0
26/05:30am 13.0 8.4 3.9 54 4.2 E 17 20 9 11 1023.5 1021.6 0.0
26/05:00am 13.3 8.7 3.9 53 4.3 ENE 17 24 9 13 1023.4 1021.5 0.0
26/04:30am 13.4 8.8 3.8 52 4.4 E 17 20 9 11 1023.2 1021.3 0.0
26/04:00am 13.8 9.2 3.9 51 4.6 ENE 17 24 9 13 1023.0 1021.1 0.0
26/03:30am 13.9 9.3 3.7 50 4.7 ENE 17 22 9 12 1022.9 1021.0 0.0
26/03:00am 14.1 9.9 3.8 50 4.8 ENE 15 20 8 11 1023.1 1021.2 0.0
26/02:30am 14.5 9.9 3.6 48 5.1 E 17 24 9 13 1022.9 1021.0 0.0
26/02:00am 15.0 10.0 3.8 47 5.2 ENE 19 28 10 15 1023.0 1021.1 0.0
26/01:30am 15.1 10.5 3.9 47 5.3 E 17 24 9 13 1023.2 1021.3 0.0
26/01:00am 14.7 10.4 3.5 47 5.2 E 15 20 8 11 1023.2 1021.3 0.0
26/12:30am 14.4 10.5 3.2 47 5.2 E 13 17 7 9 1023.2 1021.3 0.0
26/12:00am 14.6 10.6 3.1 46 5.3 E 13 19 7 10 1023.2 1021.3 0.0
 
Date/Time
WST
Temp
°C
App
Temp
°C
Dew
Point
Rel
Hum
%
Delta-T
°C
Wind Press
QNH
hPa
Press
MSL
hPa
Rain
since 9 am
mm
Dir
 
Spd
km/h
Gust
km/h
Spd
kts
Gust
kts
25/11:30pm 14.7 10.3 2.9 45 5.4 ENE 15 19 8 10 1023.2 1021.3 0.0
25/11:00pm 14.9 11.3 2.8 44 5.5 E 11 15 6 8 1023.4 1021.5 0.0
25/10:30pm 15.6 11.6 2.7 42 5.9 E 13 17 7 9 1023.3 1021.4 0.0
25/10:00pm 16.1 11.7 2.5 40 6.2 E 15 19 8 10 1023.3 1021.4 0.0
25/09:30pm 16.5 12.1 2.5 39 6.5 E 15 19 8 10 1023.3 1021.4 0.0
25/09:00pm 16.8 12.7 2.4 38 6.6 E 13 17 7 9 1023.1 1021.2 0.0
25/08:30pm 16.8 12.7 2.4 38 6.7 E 13 17 7 9 1023.0 1021.1 0.0
25/08:00pm 16.9 12.8 2.1 37 6.8 E 13 17 7 9 1022.8 1020.9 0.0
25/07:30pm 17.7 14.0 2.1 35 7.2 ESE 11 15 6 8 1022.5 1020.6 0.0
25/07:00pm 18.8 14.7 2.2 33 7.7 E 13 15 7 8 1022.3 1020.4 0.0
25/06:30pm 19.5 15.3 1.9 31 8.2 E 13 19 7 10 1021.9 1020.0 0.0
25/06:00pm 20.3 15.4 1.7 29 8.7 E 17 24 9 13 1021.5 1019.7 0.0
25/05:30pm 21.1 15.8 1.9 28 9.1 E 19 24 10 13 1021.3 1019.4 0.0
25/05:00pm 21.7 16.2 1.9 27 9.4 E 20 30 11 16 1021.2 1019.3 0.0
25/04:30pm 21.8 16.3 2.0 27 9.4 E 20 30 11 16 1021.1 1019.2 0.0
25/04:00pm 22.1 16.6 1.7 26 9.6 E 20 28 11 15 1021.1 1019.2 0.0
25/03:30pm 22.1 16.3 2.2 27 9.5 E 22 30 12 16 1021.2 1019.3 0.0
25/03:00pm 21.9 16.6 2.1 27 9.4 E 19 28 10 15 1021.1 1019.2 0.0
25/02:30pm 21.6 16.2 2.3 28 9.2 E 20 33 11 18 1021.2 1019.3 0.0
25/02:00pm 21.4 15.6 2.2 28 9.1 E 22 32 12 17 1021.2 1019.3 0.0
25/01:30pm 20.9 14.7 2.2 29 8.9 E 24 35 13 19 1021.5 1019.7 0.0
25/01:00pm 20.9 14.9 3.2 31 8.5 ENE 24 32 13 17 1021.9 1020.0 0.0
25/12:30pm 20.1 14.0 2.9 32 8.2 ENE 24 32 13 17 1022.3 1020.4 0.0
25/12:00pm 19.5 13.4 2.8 33 7.9 E 24 33 13 18 1023.0 1021.1 0.0
25/11:30am 18.9 12.2 3.5 36 7.4 ENE 28 41 15 22 1023.3 1021.4 0.0
25/11:00am 18.1 11.4 3.9 39 6.8 E 28 37 15 20 1023.6 1021.7 0.0
25/10:30am 17.0 9.9 3.3 40 6.5 E 30 41 16 22 1024.1 1022.3 0.0
25/10:00am 16.6 9.5 3.6 42 6.1 ENE 30 39 16 21 1024.6 1022.7 0.0
25/09:30am 15.8 8.7 3.6 44 5.7 ENE 30 43 16 23 1024.8 1022.9 0.0
25/09:00am 15.0 8.3 3.5 46 5.3 ENE 28 39 15 21 1024.8 1022.9 0.0
25/08:30am 14.0 6.5 3.5 49 4.9 ENE 32 44 17 24 1024.8 1022.9 0.0
25/08:00am 13.1 6.7 3.2 51 4.5 ENE 26 35 14 19 1024.7 1022.8 0.0
25/07:30am 12.2 6.1 2.6 52 4.3 ENE 24 35 13 19 1024.4 1022.5 0.0
25/07:00am 11.5 6.1 2.3 53 4.0 ENE 20 28 11 15 1024.3 1022.4 0.0
25/06:30am 10.8 6.3 2.1 55 3.8 E 15 20 8 11 1024.1 1022.3 0.0
25/06:00am 10.6 6.8 1.7 54 3.8 E 11 13 6 7 1024.0 1022.2 0.0
25/05:30am 11.0 6.8 1.8 53 4.0 ESE 13 17 7 9 1023.9 1022.1 0.0
25/05:00am 11.2 7.0 1.5 51 4.2 E 13 15 7 8 1023.7 1021.9 0.0
25/04:30am 11.6 7.0 1.5 50 4.4 E 15 19 8 10 1023.5 1021.6 0.0
25/04:00am 12.0 7.0 1.3 48 4.6 E 17 24 9 13 1023.5 1021.6 0.0
25/03:30am 12.3 7.3 1.3 47 4.8 E 17 22 9 12 1023.5 1021.6 0.0
25/03:00am 12.6 7.6 1.3 46 4.9 E 17 26 9 14 1023.4 1021.5 0.0
25/02:30am 13.1 7.7 1.5 45 5.1 E 19 26 10 14 1023.3 1021.4 0.0
25/02:00am 13.4 8.4 1.4 44 5.2 E 17 24 9 13 1023.4 1021.5 0.0
25/01:30am 13.9 8.3 1.2 42 5.6 E 20 28 11 15 1023.3 1021.4 0.0
25/01:00am 14.2 8.2 1.2 41 5.7 E 22 30 12 16 1023.4 1021.5 0.0
25/12:30am 14.6 8.6 1.2 40 5.9 E 22 32 12 17 1023.3 1021.4 0.0
25/12:00am 14.9 8.9 1.1 39 6.1 E 22 33 12 18 1023.1 1021.2 0.0
 
Date/Time
WST
Temp
°C
App
Temp
°C
Dew
Point
Rel
Hum
%
Delta-T
°C
Wind Press
QNH
hPa
Press
MSL
hPa
Rain
since 9 am
mm
Dir
 
Spd
km/h
Gust
km/h
Spd
kts
Gust
kts
24/11:30pm 15.3 9.3 1.1 38 6.3 ESE 22 32 12 17 1023.0 1021.1 0.0
24/11:00pm 15.7 9.8 1.4 38 6.4 ESE 22 33 12 18 1023.1 1021.2 0.0
24/10:30pm 16.1 10.6 1.8 38 6.5 ESE 20 26 11 14 1023.3 1021.4 0.0
24/10:00pm 16.5 11.1 2.2 38 6.5 ESE 20 26 11 14 1023.4 1021.5 0.0
24/09:30pm 16.4 11.9 4.1 44 5.9 ESE 17 20 9 11 1023.2 1021.3 0.0
24/09:00pm 16.8 12.8 5.1 46 5.7 ESE 15 20 8 11 1023.3 1021.4 0.0
24/08:30pm 17.5 13.5 5.1 44 6.1 ESE 15 19 8 10 1023.0 1021.1 0.0
24/08:00pm 18.4 13.6 4.9 41 6.6 ESE 19 26 10 14 1022.9 1021.0 0.0
24/07:30pm 18.7 14.0 5.2 41 6.7 ESE 19 24 10 13 1022.5 1020.6 0.0
24/07:00pm 19.1 14.9 5.6 41 6.7 ESE 17 24 9 13 1022.2 1020.3 0.0
24/06:30pm 19.7 15.5 5.7 40 7.1 ESE 17 24 9 13 1022.0 1020.1 0.0
24/06:00pm 20.3 15.5 5.5 38 7.4 SE 20 28 11 15 1021.9 1020.0 0.0
24/05:30pm 21.0 15.4 5.4 36 7.9 ESE 24 30 13 16 1021.9 1020.0 0.0
24/05:00pm 21.8 16.7 6.1 36 8.1 ESE 22 32 12 17 1021.7 1019.8 0.0
24/04:30pm 22.2 16.7 6.0 35 8.3 ESE 24 33 13 18 1021.5 1019.7 0.0
24/04:00pm 22.3 17.9 6.5 36 8.2 ESE 19 28 10 15 1021.7 1019.8 0.0
24/03:30pm 22.4 17.3 6.2 35 8.4 ESE 22 33 12 18 1022.0 1020.1 0.0
24/03:00pm 22.5 17.2 6.7 36 8.2 E 24 35 13 19 1021.8 1019.9 0.0
24/02:30pm 22.0 16.2 6.3 36 8.1 ESE 26 35 14 19 1021.8 1019.9 0.0
24/02:00pm 22.0 16.4 7.0 38 7.8 E 26 35 14 19 1021.9 1020.0 0.0
24/01:30pm 22.0 15.6 7.0 38 7.9 ESE 30 39 16 21 1022.0 1020.1 0.0
24/01:00pm 21.9 16.3 7.0 38 7.8 ESE 26 37 14 20 1022.4 1020.5 0.0
24/12:30pm 20.9 16.1 7.2 41 7.2 ESE 22 32 12 17 1022.7 1020.8 0.0
24/12:00pm 20.2 14.5 6.5 41 7.0 E 26 35 14 19 1023.3 1021.4 0.0
24/11:30am 19.2 14.3 7.0 45 6.3 ESE 22 33 12 18 1023.8 1022.0 0.0
24/11:00am 19.1 13.9 7.2 46 6.1 E 24 37 13 20 1024.1 1022.3 0.0
24/10:30am 18.5 12.9 7.3 48 5.8 ESE 26 35 14 19 1024.6 1022.7 0.0
24/10:00am 17.5 11.5 7.0 50 5.3 ESE 28 37 15 20 1024.9 1023.0 0.0

Other Formats:

Comma delimited format used in spreadsheet applications
http://www.bom.gov.au/fwo/IDW60801/IDW60801.94429.axf

JavaScript Object Notation format (JSON) in row-major order
http://www.bom.gov.au/fwo/IDW60801/IDW60801.94429.json